Terminal Aerodrome Forecast
Issued by NWS

Home | Current Version | Previous Version | Text Only | Print | Product List | Glossary On
Versions: 1 2 3 4 5 6 7 8 9 10 11 12 13 14
000
FTUS42 TJSJ 181700
TAFJBQ
TAF
TJBQ 181734Z 1818/1918 05014KT P6SM SCT040
     FM181900 08012KT P6SM VCTS SCT040CB
     FM182300 10006KT P6SM VCSH FEW040
     FM191400 08013KT P6SM SCT025
      AMD NOT SKED 1902/1911=

USA.gov is the U.S. government's official web portal to all federal, state and local government web resources and services.